sensor_id;sensor_type;location;lat;lon;timestamp;temperature;humidity
4548;DHT22;2286;51.570;7.090;2024-03-07T00:00:43;3.70;99.90
4548;DHT22;2286;51.570;7.090;2024-03-07T00:03:09;3.70;99.90
4548;DHT22;2286;51.570;7.090;2024-03-07T00:05:38;3.60;99.90
4548;DHT22;2286;51.570;7.090;2024-03-07T00:08:05;3.60;99.90
4548;DHT22;2286;51.570;7.090;2024-03-07T00:10:32;3.60;99.90
4548;DHT22;2286;51.570;7.090;2024-03-07T00:13:01;3.60;99.90
4548;DHT22;2286;51.570;7.090;2024-03-07T00:15:29;3.50;99.90
4548;DHT22;2286;51.570;7.090;2024-03-07T00:17:56;3.50;99.90
4548;DHT22;2286;51.570;7.090;2024-03-07T00:20:22;3.40;99.90
4548;DHT22;2286;51.570;7.090;2024-03-07T00:22:51;3.40;99.90
4548;DHT22;2286;51.570;7.090;2024-03-07T00:25:18;3.40;99.90
4548;DHT22;2286;51.570;7.090;2024-03-07T00:27:47;3.40;99.90
4548;DHT22;2286;51.570;7.090;2024-03-07T00:30:15;3.40;99.90
4548;DHT22;2286;51.570;7.090;2024-03-07T00:32:44;3.30;99.90
4548;DHT22;2286;51.570;7.090;2024-03-07T00:35:11;3.30;99.90
4548;DHT22;2286;51.570;7.090;2024-03-07T00:37:38;3.20;99.90
4548;DHT22;2286;51.570;7.090;2024-03-07T00:40:07;3.20;99.90
4548;DHT22;2286;51.570;7.090;2024-03-07T00:42:36;3.20;99.90
4548;DHT22;2286;51.570;7.090;2024-03-07T00:45:03;3.20;99.90
4548;DHT22;2286;51.570;7.090;2024-03-07T00:47:30;3.10;99.90
4548;DHT22;2286;51.570;7.090;2024-03-07T00:49:59;3.10;99.90
4548;DHT22;2286;51.570;7.090;2024-03-07T00:52:26;3.10;99.90
4548;DHT22;2286;51.570;7.090;2024-03-07T00:54:53;3.00;99.90
4548;DHT22;2286;51.570;7.090;2024-03-07T00:57:21;3.00;99.90
4548;DHT22;2286;51.570;7.090;2024-03-07T00:59:48;3.00;99.90
4548;DHT22;2286;51.570;7.090;2024-03-07T01:02:16;3.00;99.90
4548;DHT22;2286;51.570;7.090;2024-03-07T01:04:44;3.00;99.90
4548;DHT22;2286;51.570;7.090;2024-03-07T01:07:11;3.00;99.90
4548;DHT22;2286;51.570;7.090;2024-03-07T01:09:38;2.90;99.90
4548;DHT22;2286;51.570;7.090;2024-03-07T01:12:05;2.90;99.90
4548;DHT22;2286;51.570;7.090;2024-03-07T01:14:34;2.90;99.90
4548;DHT22;2286;51.570;7.090;2024-03-07T01:17:01;2.90;99.90
4548;DHT22;2286;51.570;7.090;2024-03-07T01:19:28;2.80;99.90
4548;DHT22;2286;51.570;7.090;2024-03-07T01:21:55;2.80;99.90
4548;DHT22;2286;51.570;7.090;2024-03-07T01:24:22;2.80;99.90
4548;DHT22;2286;51.570;7.090;2024-03-07T01:26:49;2.80;99.90
4548;DHT22;2286;51.570;7.090;2024-03-07T01:29:16;2.80;99.90
4548;DHT22;2286;51.570;7.090;2024-03-07T01:31:45;2.80;99.90
4548;DHT22;2286;51.570;7.090;2024-03-07T01:34:12;2.70;99.90
4548;DHT22;2286;51.570;7.090;2024-03-07T01:36:39;2.70;99.90
4548;DHT22;2286;51.570;7.090;2024-03-07T01:39:07;2.80;99.90
4548;DHT22;2286;51.570;7.090;2024-03-07T01:41:36;2.70;99.90
4548;DHT22;2286;51.570;7.090;2024-03-07T01:44:03;2.70;99.90
4548;DHT22;2286;51.570;7.090;2024-03-07T01:46:30;2.60;99.90
4548;DHT22;2286;51.570;7.090;2024-03-07T01:48:59;2.60;99.90
4548;DHT22;2286;51.570;7.090;2024-03-07T01:51:27;2.60;99.90
4548;DHT22;2286;51.570;7.090;2024-03-07T01:53:54;2.60;99.90
4548;DHT22;2286;51.570;7.090;2024-03-07T01:56:21;2.50;99.90
4548;DHT22;2286;51.570;7.090;2024-03-07T01:58:49;2.50;99.90
4548;DHT22;2286;51.570;7.090;2024-03-07T02:01:18;2.40;99.90
4548;DHT22;2286;51.570;7.090;2024-03-07T02:03:45;2.30;99.90
4548;DHT22;2286;51.570;7.090;2024-03-07T02:06:13;2.30;99.90
4548;DHT22;2286;51.570;7.090;2024-03-07T02:08:40;2.20;99.90
4548;DHT22;2286;51.570;7.090;2024-03-07T02:11:07;2.20;99.90
4548;DHT22;2286;51.570;7.090;2024-03-07T02:13:35;2.30;99.90
4548;DHT22;2286;51.570;7.090;2024-03-07T02:16:02;2.20;99.90
4548;DHT22;2286;51.570;7.090;2024-03-07T02:18:29;2.30;99.90
4548;DHT22;2286;51.570;7.090;2024-03-07T02:20:58;2.30;99.90
4548;DHT22;2286;51.570;7.090;2024-03-07T02:23:25;2.20;99.90
4548;DHT22;2286;51.570;7.090;2024-03-07T02:25:53;2.20;99.90
4548;DHT22;2286;51.570;7.090;2024-03-07T02:28:20;2.20;99.90
4548;DHT22;2286;51.570;7.090;2024-03-07T02:30:47;2.20;99.90
4548;DHT22;2286;51.570;7.090;2024-03-07T02:33:14;2.20;99.90
4548;DHT22;2286;51.570;7.090;2024-03-07T02:35:41;2.20;99.90
4548;DHT22;2286;51.570;7.090;2024-03-07T02:38:11;2.20;99.90
4548;DHT22;2286;51.570;7.090;2024-03-07T02:40:38;2.20;99.90
4548;DHT22;2286;51.570;7.090;2024-03-07T02:43:05;2.20;99.90
4548;DHT22;2286;51.570;7.090;2024-03-07T02:45:32;2.10;99.90
4548;DHT22;2286;51.570;7.090;2024-03-07T02:47:59;2.10;99.90
4548;DHT22;2286;51.570;7.090;2024-03-07T02:50:26;2.20;99.90
4548;DHT22;2286;51.570;7.090;2024-03-07T02:52:53;2.20;99.90
4548;DHT22;2286;51.570;7.090;2024-03-07T02:55:21;2.20;99.90
4548;DHT22;2286;51.570;7.090;2024-03-07T02:57:48;2.10;99.90
4548;DHT22;2286;51.570;7.090;2024-03-07T03:00:17;2.10;99.90
4548;DHT22;2286;51.570;7.090;2024-03-07T03:02:46;2.10;99.90
4548;DHT22;2286;51.570;7.090;2024-03-07T03:05:14;2.10;99.90
4548;DHT22;2286;51.570;7.090;2024-03-07T03:07:42;2.10;99.90
4548;DHT22;2286;51.570;7.090;2024-03-07T03:10:19;2.10;99.90
4548;DHT22;2286;51.570;7.090;2024-03-07T03:12:47;2.10;99.90
4548;DHT22;2286;51.570;7.090;2024-03-07T03:15:14;2.20;99.90
4548;DHT22;2286;51.570;7.090;2024-03-07T03:17:46;2.20;99.90
4548;DHT22;2286;51.570;7.090;2024-03-07T03:20:13;2.10;99.90
4548;DHT22;2286;51.570;7.090;2024-03-07T03:22:50;2.10;99.90
4548;DHT22;2286;51.570;7.090;2024-03-07T03:25:17;2.00;99.90
4548;DHT22;2286;51.570;7.090;2024-03-07T03:27:44;2.10;99.90
4548;DHT22;2286;51.570;7.090;2024-03-07T03:30:12;2.10;99.90
4548;DHT22;2286;51.570;7.090;2024-03-07T03:32:39;2.00;99.90
4548;DHT22;2286;51.570;7.090;2024-03-07T03:35:07;2.00;99.90
4548;DHT22;2286;51.570;7.090;2024-03-07T03:37:39;2.00;99.90
4548;DHT22;2286;51.570;7.090;2024-03-07T03:40:07;2.00;99.90
4548;DHT22;2286;51.570;7.090;2024-03-07T03:42:35;2.00;99.90
4548;DHT22;2286;51.570;7.090;2024-03-07T03:45:03;2.00;99.90
4548;DHT22;2286;51.570;7.090;2024-03-07T03:47:33;1.90;99.90
4548;DHT22;2286;51.570;7.090;2024-03-07T03:50:01;2.00;99.90
4548;DHT22;2286;51.570;7.090;2024-03-07T03:52:28;2.00;99.90
4548;DHT22;2286;51.570;7.090;2024-03-07T03:54:56;2.00;99.90
4548;DHT22;2286;51.570;7.090;2024-03-07T03:57:22;1.90;99.90
4548;DHT22;2286;51.570;7.090;2024-03-07T03:59:49;1.90;99.90
4548;DHT22;2286;51.570;7.090;2024-03-07T04:02:16;1.90;99.90
4548;DHT22;2286;51.570;7.090;2024-03-07T04:04:44;1.90;99.90
4548;DHT22;2286;51.570;7.090;2024-03-07T04:07:11;1.90;99.90
4548;DHT22;2286;51.570;7.090;2024-03-07T04:09:38;1.90;99.90
4548;DHT22;2286;51.570;7.090;2024-03-07T04:12:06;1.90;99.90
4548;DHT22;2286;51.570;7.090;2024-03-07T04:14:36;1.90;99.90
4548;DHT22;2286;51.570;7.090;2024-03-07T04:17:03;1.90;99.90
4548;DHT22;2286;51.570;7.090;2024-03-07T04:19:32;1.80;99.90
4548;DHT22;2286;51.570;7.090;2024-03-07T04:22:01;1.80;99.90
4548;DHT22;2286;51.570;7.090;2024-03-07T04:24:28;1.90;99.90
4548;DHT22;2286;51.570;7.090;2024-03-07T04:26:55;1.80;99.90
4548;DHT22;2286;51.570;7.090;2024-03-07T04:29:22;1.80;99.90
4548;DHT22;2286;51.570;7.090;2024-03-07T04:31:49;1.80;99.90
4548;DHT22;2286;51.570;7.090;2024-03-07T04:34:16;1.80;99.90
4548;DHT22;2286;51.570;7.090;2024-03-07T04:36:42;1.70;99.90
4548;DHT22;2286;51.570;7.090;2024-03-07T04:39:11;1.60;99.90
4548;DHT22;2286;51.570;7.090;2024-03-07T04:41:50;1.60;99.90
4548;DHT22;2286;51.570;7.090;2024-03-07T04:44:17;1.60;99.90
4548;DHT22;2286;51.570;7.090;2024-03-07T04:46:43;1.50;99.90
4548;DHT22;2286;51.570;7.090;2024-03-07T04:49:10;1.50;99.90
4548;DHT22;2286;51.570;7.090;2024-03-07T04:51:37;1.50;99.90
4548;DHT22;2286;51.570;7.090;2024-03-07T04:54:04;1.50;99.90
4548;DHT22;2286;51.570;7.090;2024-03-07T04:56:33;1.50;99.90
4548;DHT22;2286;51.570;7.090;2024-03-07T04:59:00;1.50;99.90
4548;DHT22;2286;51.570;7.090;2024-03-07T05:01:28;1.40;99.90
4548;DHT22;2286;51.570;7.090;2024-03-07T05:03:56;1.40;99.90
4548;DHT22;2286;51.570;7.090;2024-03-07T05:06:22;1.40;99.90
4548;DHT22;2286;51.570;7.090;2024-03-07T05:08:49;1.40;99.90
4548;DHT22;2286;51.570;7.090;2024-03-07T05:11:16;1.30;99.90
4548;DHT22;2286;51.570;7.090;2024-03-07T05:13:44;1.30;99.90
4548;DHT22;2286;51.570;7.090;2024-03-07T05:16:11;1.30;99.90
4548;DHT22;2286;51.570;7.090;2024-03-07T05:18:38;1.20;99.90
4548;DHT22;2286;51.570;7.090;2024-03-07T05:21:06;1.20;99.90
4548;DHT22;2286;51.570;7.090;2024-03-07T05:23:47;1.20;99.90
4548;DHT22;2286;51.570;7.090;2024-03-07T05:26:14;1.20;99.90
4548;DHT22;2286;51.570;7.090;2024-03-07T05:28:41;1.10;99.90
4548;DHT22;2286;51.570;7.090;2024-03-07T05:31:09;1.10;99.90
4548;DHT22;2286;51.570;7.090;2024-03-07T05:33:37;1.10;99.90
4548;DHT22;2286;51.570;7.090;2024-03-07T05:36:06;1.10;99.90
4548;DHT22;2286;51.570;7.090;2024-03-07T05:38:40;1.00;99.90
4548;DHT22;2286;51.570;7.090;2024-03-07T05:41:09;1.00;99.90
4548;DHT22;2286;51.570;7.090;2024-03-07T05:43:36;1.00;99.90
4548;DHT22;2286;51.570;7.090;2024-03-07T05:46:03;1.00;99.90
4548;DHT22;2286;51.570;7.090;2024-03-07T05:48:33;1.00;99.90
4548;DHT22;2286;51.570;7.090;2024-03-07T05:51:00;1.00;99.90
4548;DHT22;2286;51.570;7.090;2024-03-07T05:53:27;1.00;99.90
4548;DHT22;2286;51.570;7.090;2024-03-07T05:55:53;0.90;99.90
4548;DHT22;2286;51.570;7.090;2024-03-07T05:58:20;0.90;99.90
4548;DHT22;2286;51.570;7.090;2024-03-07T06:00:47;0.90;99.90
4548;DHT22;2286;51.570;7.090;2024-03-07T06:03:15;0.90;99.90
4548;DHT22;2286;51.570;7.090;2024-03-07T06:05:44;0.90;99.90
4548;DHT22;2286;51.570;7.090;2024-03-07T06:08:14;0.90;99.90
4548;DHT22;2286;51.570;7.090;2024-03-07T06:10:42;0.90;99.90
4548;DHT22;2286;51.570;7.090;2024-03-07T06:13:09;0.80;99.90
4548;DHT22;2286;51.570;7.090;2024-03-07T06:15:37;0.80;99.90
4548;DHT22;2286;51.570;7.090;2024-03-07T06:18:05;0.90;99.90
4548;DHT22;2286;51.570;7.090;2024-03-07T06:20:33;0.80;99.90
4548;DHT22;2286;51.570;7.090;2024-03-07T06:23:03;0.90;99.90
4548;DHT22;2286;51.570;7.090;2024-03-07T06:25:30;0.90;99.90
4548;DHT22;2286;51.570;7.090;2024-03-07T06:28:03;0.90;99.90
4548;DHT22;2286;51.570;7.090;2024-03-07T06:30:35;0.90;99.90
4548;DHT22;2286;51.570;7.090;2024-03-07T06:33:03;0.90;99.90
4548;DHT22;2286;51.570;7.090;2024-03-07T06:35:30;0.90;99.90
4548;DHT22;2286;51.570;7.090;2024-03-07T06:37:57;0.90;99.90
4548;DHT22;2286;51.570;7.090;2024-03-07T06:40:25;0.90;99.90
4548;DHT22;2286;51.570;7.090;2024-03-07T06:42:51;0.90;99.90
4548;DHT22;2286;51.570;7.090;2024-03-07T06:45:19;1.00;99.90
4548;DHT22;2286;51.570;7.090;2024-03-07T06:47:46;1.00;99.90
4548;DHT22;2286;51.570;7.090;2024-03-07T06:50:13;1.00;99.90
4548;DHT22;2286;51.570;7.090;2024-03-07T06:52:45;1.00;99.90
4548;DHT22;2286;51.570;7.090;2024-03-07T06:55:13;1.10;99.90
4548;DHT22;2286;51.570;7.090;2024-03-07T06:57:42;1.20;99.90
4548;DHT22;2286;51.570;7.090;2024-03-07T07:00:09;1.20;99.90
4548;DHT22;2286;51.570;7.090;2024-03-07T07:02:37;1.30;99.90
4548;DHT22;2286;51.570;7.090;2024-03-07T07:05:05;1.40;99.90
4548;DHT22;2286;51.570;7.090;2024-03-07T07:07:36;1.50;99.90
4548;DHT22;2286;51.570;7.090;2024-03-07T07:10:04;1.50;99.90
4548;DHT22;2286;51.570;7.090;2024-03-07T07:12:34;1.60;99.90
4548;DHT22;2286;51.570;7.090;2024-03-07T07:15:02;1.70;99.90
4548;DHT22;2286;51.570;7.090;2024-03-07T07:17:30;1.70;99.90
4548;DHT22;2286;51.570;7.090;2024-03-07T07:19:57;1.70;99.90
4548;DHT22;2286;51.570;7.090;2024-03-07T07:22:25;1.80;99.90
4548;DHT22;2286;51.570;7.090;2024-03-07T07:24:52;1.90;99.90
4548;DHT22;2286;51.570;7.090;2024-03-07T07:27:19;1.90;99.90
4548;DHT22;2286;51.570;7.090;2024-03-07T07:29:47;2.00;99.90
4548;DHT22;2286;51.570;7.090;2024-03-07T07:32:15;2.00;99.90
4548;DHT22;2286;51.570;7.090;2024-03-07T07:34:42;2.10;99.90
4548;DHT22;2286;51.570;7.090;2024-03-07T07:37:09;2.10;99.90
4548;DHT22;2286;51.570;7.090;2024-03-07T07:39:36;2.20;99.90
4548;DHT22;2286;51.570;7.090;2024-03-07T07:42:03;2.30;99.90
4548;DHT22;2286;51.570;7.090;2024-03-07T07:44:30;2.30;99.90
4548;DHT22;2286;51.570;7.090;2024-03-07T07:46:58;2.40;99.90
4548;DHT22;2286;51.570;7.090;2024-03-07T07:49:26;2.50;99.90
4548;DHT22;2286;51.570;7.090;2024-03-07T07:51:53;2.50;99.90
4548;DHT22;2286;51.570;7.090;2024-03-07T07:54:21;2.60;99.90
4548;DHT22;2286;51.570;7.090;2024-03-07T07:56:47;2.70;99.90
4548;DHT22;2286;51.570;7.090;2024-03-07T07:59:14;2.70;99.90
4548;DHT22;2286;51.570;7.090;2024-03-07T08:01:41;2.80;99.90
4548;DHT22;2286;51.570;7.090;2024-03-07T08:04:07;2.90;99.90
4548;DHT22;2286;51.570;7.090;2024-03-07T08:06:38;3.00;99.90
4548;DHT22;2286;51.570;7.090;2024-03-07T08:09:06;3.10;99.90
4548;DHT22;2286;51.570;7.090;2024-03-07T08:11:36;3.20;99.90
4548;DHT22;2286;51.570;7.090;2024-03-07T08:14:04;3.30;99.90
4548;DHT22;2286;51.570;7.090;2024-03-07T08:16:32;3.40;99.90
4548;DHT22;2286;51.570;7.090;2024-03-07T08:18:59;3.40;99.90
4548;DHT22;2286;51.570;7.090;2024-03-07T08:21:26;3.50;99.90
4548;DHT22;2286;51.570;7.090;2024-03-07T08:23:54;3.70;99.90
4548;DHT22;2286;51.570;7.090;2024-03-07T08:26:21;3.90;99.90
4548;DHT22;2286;51.570;7.090;2024-03-07T08:28:48;4.20;99.90
4548;DHT22;2286;51.570;7.090;2024-03-07T08:31:15;4.40;99.90
4548;DHT22;2286;51.570;7.090;2024-03-07T08:33:42;4.70;99.90
4548;DHT22;2286;51.570;7.090;2024-03-07T08:36:12;5.10;99.90
4548;DHT22;2286;51.570;7.090;2024-03-07T08:38:39;5.30;99.90
4548;DHT22;2286;51.570;7.090;2024-03-07T08:41:07;5.50;99.90
4548;DHT22;2286;51.570;7.090;2024-03-07T08:43:34;6.70;99.90
4548;DHT22;2286;51.570;7.090;2024-03-07T08:46:00;5.60;99.90
4548;DHT22;2286;51.570;7.090;2024-03-07T08:48:28;6.40;99.90
4548;DHT22;2286;51.570;7.090;2024-03-07T08:50:55;5.70;99.90
4548;DHT22;2286;51.570;7.090;2024-03-07T08:53:22;6.60;1.00
4548;DHT22;2286;51.570;7.090;2024-03-07T08:55:49;5.60;86.60
4548;DHT22;2286;51.570;7.090;2024-03-07T08:58:17;5.60;1.00
4548;DHT22;2286;51.570;7.090;2024-03-07T09:00:44;6.60;1.00
4548;DHT22;2286;51.570;7.090;2024-03-07T09:03:12;6.20;99.90
4548;DHT22;2286;51.570;7.090;2024-03-07T09:05:39;6.20;1.00
4548;DHT22;2286;51.570;7.090;2024-03-07T09:08:06;6.70;1.00
4548;DHT22;2286;51.570;7.090;2024-03-07T09:10:33;6.10;1.00
4548;DHT22;2286;51.570;7.090;2024-03-07T09:13:00;6.10;1.00
4548;DHT22;2286;51.570;7.090;2024-03-07T09:15:29;6.30;1.00
4548;DHT22;2286;51.570;7.090;2024-03-07T09:17:57;6.40;99.90
4548;DHT22;2286;51.570;7.090;2024-03-07T09:20:24;6.50;99.90
4548;DHT22;2286;51.570;7.090;2024-03-07T09:22:51;6.60;1.00
4548;DHT22;2286;51.570;7.090;2024-03-07T09:25:20;6.70;99.90
4548;DHT22;2286;51.570;7.090;2024-03-07T09:27:47;6.90;99.90
4548;DHT22;2286;51.570;7.090;2024-03-07T09:30:14;6.90;1.00
4548;DHT22;2286;51.570;7.090;2024-03-07T09:32:45;7.00;1.00
4548;DHT22;2286;51.570;7.090;2024-03-07T09:35:12;6.90;1.00
4548;DHT22;2286;51.570;7.090;2024-03-07T09:37:40;7.10;1.00
4548;DHT22;2286;51.570;7.090;2024-03-07T09:40:08;7.10;1.00
4548;DHT22;2286;51.570;7.090;2024-03-07T09:42:41;7.20;99.90
4548;DHT22;2286;51.570;7.090;2024-03-07T09:45:14;7.40;99.90
4548;DHT22;2286;51.570;7.090;2024-03-07T09:47:45;7.50;1.00
4548;DHT22;2286;51.570;7.090;2024-03-07T09:50:15;7.70;1.00
4548;DHT22;2286;51.570;7.090;2024-03-07T09:52:45;8.40;99.90
4548;DHT22;2286;51.570;7.090;2024-03-07T09:55:15;8.00;99.90
4548;DHT22;2286;51.570;7.090;2024-03-07T09:57:43;8.10;1.00
4548;DHT22;2286;51.570;7.090;2024-03-07T10:00:13;8.30;1.00
4548;DHT22;2286;51.570;7.090;2024-03-07T10:02:53;8.50;1.00
4548;DHT22;2286;51.570;7.090;2024-03-07T10:05:22;8.70;99.90
4548;DHT22;2286;51.570;7.090;2024-03-07T10:07:51;8.90;99.90
4548;DHT22;2286;51.570;7.090;2024-03-07T10:10:18;9.10;99.90
4548;DHT22;2286;51.570;7.090;2024-03-07T10:12:45;9.10;1.00
4548;DHT22;2286;51.570;7.090;2024-03-07T10:15:11;9.20;1.00
4548;DHT22;2286;51.570;7.090;2024-03-07T10:17:39;9.40;1.00
4548;DHT22;2286;51.570;7.090;2024-03-07T10:20:08;9.60;1.00
4548;DHT22;2286;51.570;7.090;2024-03-07T10:22:39;9.90;1.00
4548;DHT22;2286;51.570;7.090;2024-03-07T10:25:07;10.10;99.90
4548;DHT22;2286;51.570;7.090;2024-03-07T10:27:36;10.30;99.90
4548;DHT22;2286;51.570;7.090;2024-03-07T10:30:04;10.30;99.90
4548;DHT22;2286;51.570;7.090;2024-03-07T10:32:33;10.20;99.90
4548;DHT22;2286;51.570;7.090;2024-03-07T10:35:00;10.30;99.90
4548;DHT22;2286;51.570;7.090;2024-03-07T10:37:30;10.40;99.90
4548;DHT22;2286;51.570;7.090;2024-03-07T10:39:57;10.70;99.90
4548;DHT22;2286;51.570;7.090;2024-03-07T10:42:26;10.70;99.90
4548;DHT22;2286;51.570;7.090;2024-03-07T10:45:04;11.00;99.90
4548;DHT22;2286;51.570;7.090;2024-03-07T10:47:37;10.90;99.90
4548;DHT22;2286;51.570;7.090;2024-03-07T10:50:13;11.30;99.90
4548;DHT22;2286;51.570;7.090;2024-03-07T10:52:49;11.70;99.90
4548;DHT22;2286;51.570;7.090;2024-03-07T10:55:27;11.60;99.90
4548;DHT22;2286;51.570;7.090;2024-03-07T10:58:02;12.00;99.90
4548;DHT22;2286;51.570;7.090;2024-03-07T11:00:33;12.20;99.90
4548;DHT22;2286;51.570;7.090;2024-03-07T11:03:02;12.90;99.90
4548;DHT22;2286;51.570;7.090;2024-03-07T11:05:33;13.40;99.90
4548;DHT22;2286;51.570;7.090;2024-03-07T11:08:02;14.20;99.90
4548;DHT22;2286;51.570;7.090;2024-03-07T11:10:37;14.40;99.90
4548;DHT22;2286;51.570;7.090;2024-03-07T11:13:08;14.50;99.90
4548;DHT22;2286;51.570;7.090;2024-03-07T11:15:39;15.30;99.90
4548;DHT22;2286;51.570;7.090;2024-03-07T11:18:07;16.50;99.90
4548;DHT22;2286;51.570;7.090;2024-03-07T11:20:36;16.60;99.90
4548;DHT22;2286;51.570;7.090;2024-03-07T11:23:26;16.00;99.90
4548;DHT22;2286;51.570;7.090;2024-03-07T11:25:55;15.90;99.90
4548;DHT22;2286;51.570;7.090;2024-03-07T11:28:28;15.40;99.90
4548;DHT22;2286;51.570;7.090;2024-03-07T11:31:07;15.10;99.90
4548;DHT22;2286;51.570;7.090;2024-03-07T11:33:37;15.00;99.90
4548;DHT22;2286;51.570;7.090;2024-03-07T11:36:07;15.20;99.90
4548;DHT22;2286;51.570;7.090;2024-03-07T11:38:36;15.10;99.90
4548;DHT22;2286;51.570;7.090;2024-03-07T11:41:04;15.00;99.90
4548;DHT22;2286;51.570;7.090;2024-03-07T11:43:31;15.10;99.90
4548;DHT22;2286;51.570;7.090;2024-03-07T11:45:59;15.40;99.90
4548;DHT22;2286;51.570;7.090;2024-03-07T11:48:26;15.70;99.90
4548;DHT22;2286;51.570;7.090;2024-03-07T11:50:53;15.70;99.90
4548;DHT22;2286;51.570;7.090;2024-03-07T11:53:20;15.40;99.90
4548;DHT22;2286;51.570;7.090;2024-03-07T11:55:49;15.00;99.90
4548;DHT22;2286;51.570;7.090;2024-03-07T11:58:20;14.70;99.90
4548;DHT22;2286;51.570;7.090;2024-03-07T12:00:50;14.20;99.90
4548;DHT22;2286;51.570;7.090;2024-03-07T12:03:18;13.70;99.90
4548;DHT22;2286;51.570;7.090;2024-03-07T12:05:47;13.70;99.90
4548;DHT22;2286;51.570;7.090;2024-03-07T12:08:14;13.80;99.90
4548;DHT22;2286;51.570;7.090;2024-03-07T12:10:42;14.30;99.90
4548;DHT22;2286;51.570;7.090;2024-03-07T12:13:12;14.90;99.90
4548;DHT22;2286;51.570;7.090;2024-03-07T12:15:41;15.00;99.90
4548;DHT22;2286;51.570;7.090;2024-03-07T12:18:09;15.00;99.90
4548;DHT22;2286;51.570;7.090;2024-03-07T12:20:36;14.80;99.90
4548;DHT22;2286;51.570;7.090;2024-03-07T12:23:04;14.70;99.90
4548;DHT22;2286;51.570;7.090;2024-03-07T12:25:34;14.30;99.90
4548;DHT22;2286;51.570;7.090;2024-03-07T12:28:06;14.00;99.90
4548;DHT22;2286;51.570;7.090;2024-03-07T12:30:48;13.80;99.90
4548;DHT22;2286;51.570;7.090;2024-03-07T12:33:17;14.60;99.90
4548;DHT22;2286;51.570;7.090;2024-03-07T12:35:45;16.10;99.90
4548;DHT22;2286;51.570;7.090;2024-03-07T12:38:13;17.10;99.90
4548;DHT22;2286;51.570;7.090;2024-03-07T12:40:42;17.30;99.90
4548;DHT22;2286;51.570;7.090;2024-03-07T12:43:16;16.80;99.90
4548;DHT22;2286;51.570;7.090;2024-03-07T12:45:47;16.20;99.90
4548;DHT22;2286;51.570;7.090;2024-03-07T12:48:14;16.30;99.90
4548;DHT22;2286;51.570;7.090;2024-03-07T12:50:42;17.50;99.90
4548;DHT22;2286;51.570;7.090;2024-03-07T12:53:08;18.20;99.90
4548;DHT22;2286;51.570;7.090;2024-03-07T12:55:38;18.00;99.90
4548;DHT22;2286;51.570;7.090;2024-03-07T12:58:07;17.20;99.90
4548;DHT22;2286;51.570;7.090;2024-03-07T13:00:35;16.30;99.90
4548;DHT22;2286;51.570;7.090;2024-03-07T13:03:04;16.40;99.90
4548;DHT22;2286;51.570;7.090;2024-03-07T13:05:31;17.70;99.90
4548;DHT22;2286;51.570;7.090;2024-03-07T13:07:58;19.10;99.90
4548;DHT22;2286;51.570;7.090;2024-03-07T13:10:25;19.80;99.90
4548;DHT22;2286;51.570;7.090;2024-03-07T13:12:52;21.30;99.90
4548;DHT22;2286;51.570;7.090;2024-03-07T13:15:19;20.90;99.90
4548;DHT22;2286;51.570;7.090;2024-03-07T13:17:48;20.20;99.90
4548;DHT22;2286;51.570;7.090;2024-03-07T13:20:19;20.70;99.90
4548;DHT22;2286;51.570;7.090;2024-03-07T13:22:47;20.00;99.90
4548;DHT22;2286;51.570;7.090;2024-03-07T13:25:17;19.50;99.90
4548;DHT22;2286;51.570;7.090;2024-03-07T13:27:52;18.10;99.90
4548;DHT22;2286;51.570;7.090;2024-03-07T13:30:21;16.80;99.90
4548;DHT22;2286;51.570;7.090;2024-03-07T13:32:54;16.00;99.90
4548;DHT22;2286;51.570;7.090;2024-03-07T13:35:22;15.00;99.90
4548;DHT22;2286;51.570;7.090;2024-03-07T13:37:51;14.90;99.90
4548;DHT22;2286;51.570;7.090;2024-03-07T13:40:19;14.40;99.90
4548;DHT22;2286;51.570;7.090;2024-03-07T13:42:50;13.70;99.90
4548;DHT22;2286;51.570;7.090;2024-03-07T13:45:20;13.40;99.90
4548;DHT22;2286;51.570;7.090;2024-03-07T13:47:48;14.50;99.90
4548;DHT22;2286;51.570;7.090;2024-03-07T13:50:16;16.00;99.90
4548;DHT22;2286;51.570;7.090;2024-03-07T13:52:47;16.00;99.90
4548;DHT22;2286;51.570;7.090;2024-03-07T13:55:28;16.60;99.90
4548;DHT22;2286;51.570;7.090;2024-03-07T13:58:02;18.60;99.90
4548;DHT22;2286;51.570;7.090;2024-03-07T14:00:41;20.70;99.90
4548;DHT22;2286;51.570;7.090;2024-03-07T14:03:26;21.80;99.90
4548;DHT22;2286;51.570;7.090;2024-03-07T14:06:00;22.20;99.90
4548;DHT22;2286;51.570;7.090;2024-03-07T14:08:57;21.10;99.90
4548;DHT22;2286;51.570;7.090;2024-03-07T14:11:53;21.00;99.90
4548;DHT22;2286;51.570;7.090;2024-03-07T14:14:55;20.30;99.90
4548;DHT22;2286;51.570;7.090;2024-03-07T14:18:18;19.70;99.90
4548;DHT22;2286;51.570;7.090;2024-03-07T14:21:04;19.00;99.90
4548;DHT22;2286;51.570;7.090;2024-03-07T14:24:11;18.40;99.90
4548;DHT22;2286;51.570;7.090;2024-03-07T14:27:14;17.70;99.90
4548;DHT22;2286;51.570;7.090;2024-03-07T14:29:47;17.10;99.90
4548;DHT22;2286;51.570;7.090;2024-03-07T14:32:15;16.70;99.90
4548;DHT22;2286;51.570;7.090;2024-03-07T14:34:49;16.00;99.90
4548;DHT22;2286;51.570;7.090;2024-03-07T14:37:23;15.30;99.90
4548;DHT22;2286;51.570;7.090;2024-03-07T14:40:09;15.00;99.90
4548;DHT22;2286;51.570;7.090;2024-03-07T14:42:39;14.80;99.90
4548;DHT22;2286;51.570;7.090;2024-03-07T14:45:12;14.80;99.90
4548;DHT22;2286;51.570;7.090;2024-03-07T14:47:39;14.50;99.90
4548;DHT22;2286;51.570;7.090;2024-03-07T14:50:08;14.10;99.90
4548;DHT22;2286;51.570;7.090;2024-03-07T14:52:36;14.00;99.90
4548;DHT22;2286;51.570;7.090;2024-03-07T14:55:08;14.60;99.90
4548;DHT22;2286;51.570;7.090;2024-03-07T14:57:35;16.30;99.90
4548;DHT22;2286;51.570;7.090;2024-03-07T15:00:02;17.90;99.90
4548;DHT22;2286;51.570;7.090;2024-03-07T15:02:33;17.20;99.90
4548;DHT22;2286;51.570;7.090;2024-03-07T15:05:03;15.90;99.90
4548;DHT22;2286;51.570;7.090;2024-03-07T15:07:31;14.60;99.90
4548;DHT22;2286;51.570;7.090;2024-03-07T15:09:57;13.70;99.90
4548;DHT22;2286;51.570;7.090;2024-03-07T15:12:26;13.20;99.90
4548;DHT22;2286;51.570;7.090;2024-03-07T15:14:53;13.00;99.90
4548;DHT22;2286;51.570;7.090;2024-03-07T15:17:20;12.80;99.90
4548;DHT22;2286;51.570;7.090;2024-03-07T15:19:49;12.60;99.90
4548;DHT22;2286;51.570;7.090;2024-03-07T15:22:16;12.60;99.90
4548;DHT22;2286;51.570;7.090;2024-03-07T15:24:45;12.50;99.90
4548;DHT22;2286;51.570;7.090;2024-03-07T15:27:13;12.40;99.90
4548;DHT22;2286;51.570;7.090;2024-03-07T15:29:43;12.40;99.90
4548;DHT22;2286;51.570;7.090;2024-03-07T15:32:10;12.40;99.90
4548;DHT22;2286;51.570;7.090;2024-03-07T15:34:39;12.20;99.90
4548;DHT22;2286;51.570;7.090;2024-03-07T15:37:06;12.10;99.90
4548;DHT22;2286;51.570;7.090;2024-03-07T15:39:35;12.00;99.90
4548;DHT22;2286;51.570;7.090;2024-03-07T15:42:04;11.80;99.90
4548;DHT22;2286;51.570;7.090;2024-03-07T15:44:31;11.70;99.90
4548;DHT22;2286;51.570;7.090;2024-03-07T15:46:59;11.50;99.90
4548;DHT22;2286;51.570;7.090;2024-03-07T15:49:26;11.20;99.90
4548;DHT22;2286;51.570;7.090;2024-03-07T15:51:52;11.00;99.90
4548;DHT22;2286;51.570;7.090;2024-03-07T15:54:20;10.90;99.90
4548;DHT22;2286;51.570;7.090;2024-03-07T15:56:49;10.80;99.90
4548;DHT22;2286;51.570;7.090;2024-03-07T15:59:16;10.70;99.90
4548;DHT22;2286;51.570;7.090;2024-03-07T16:01:42;10.50;99.90
4548;DHT22;2286;51.570;7.090;2024-03-07T16:04:11;10.50;99.90
4548;DHT22;2286;51.570;7.090;2024-03-07T16:06:42;10.50;99.90
4548;DHT22;2286;51.570;7.090;2024-03-07T16:09:09;10.50;99.90
4548;DHT22;2286;51.570;7.090;2024-03-07T16:11:38;10.50;99.90
4548;DHT22;2286;51.570;7.090;2024-03-07T16:14:05;10.50;99.90
4548;DHT22;2286;51.570;7.090;2024-03-07T16:16:32;10.40;99.90
4548;DHT22;2286;51.570;7.090;2024-03-07T16:18:59;10.30;99.90
4548;DHT22;2286;51.570;7.090;2024-03-07T16:21:27;10.40;99.90
4548;DHT22;2286;51.570;7.090;2024-03-07T16:23:54;10.30;1.00